Ll Antias — UINP — position and weather

sailwx.info

Track history (hours):
 
Tides and Currents Weather Stations Pressure Air Temp Water Temp Dewpoint Dewpoint Depression Visibility Wind Speed Wind Dir Waves Ship Positions

Ll Antias

Last reported at 2017-Sep-27 00:03 UTC. Time now 2017-Oct-19 07:17 UTC.
Position N 70°10' E 032°01'.
Warning: this ship's position is 22 days out of date.

Length 53 m; draft 6 m.

Type: Fishing. MMSI: 273843800.

Date/timePositionNaut miles runAvg speedWind from/ knotsBaromVisibWave heightAir tempDewpointWater temp
2017-Sep-27 00:03N 70°10' E 032°01'0 0.5
2017-Sep-27 00:00N 70°10' E 032°01'2 3.5
2017-Sep-26 23:30N 70°10' E 031°56'4 8.5
2017-Sep-26 23:00N 70°09' E 031°44'3 5.8
2017-Sep-26 22:30N 70°08' E 031°36'3 6.1
2017-Sep-26 21:59N 70°07' E 031°28'3 6.5
2017-Sep-26 21:29N 70°05' E 031°19'3 6.9
2017-Sep-26 21:00N 70°04' E 031°10'3 6.8
2017-Sep-26 20:30N 70°02' E 031°02'3 6.8
2017-Sep-26 20:00N 70°01' E 030°53'4 7.1
2017-Sep-26 19:30N 69°59' E 030°44'4 7.2
2017-Sep-26 19:00N 69°58' E 030°34'4 7.2
2017-Sep-26 18:30N 69°56' E 030°25'4 7.4
2017-Sep-26 18:00N 69°54' E 030°15'3 6.7
2017-Sep-26 17:30N 69°52' E 030°08'3 6.7
2017-Sep-26 17:00N 69°49' E 030°07'3 6.7
2017-Sep-26 16:30N 69°45' E 030°05'2 3.5
2017-Sep-26 16:00N 69°44' E 030°05'0 0.0
2017-Sep-26 15:29N 69°44' E 030°05'0 0.0
2017-Sep-26 15:00N 69°44' E 030°05'0 0.0
2017-Sep-26 14:29N 69°44' E 030°05'0 0.0
2017-Sep-26 14:00N 69°44' E 030°05'0 0.0
2017-Sep-26 13:30N 69°44' E 030°05'0 0.0
2017-Sep-26 13:00N 69°44' E 030°05'0 0.0
2017-Sep-26 12:30N 69°44' E 030°05'0 0.0
2017-Sep-26 12:00N 69°44' E 030°05'0 0.0
2017-Sep-26 11:30N 69°44' E 030°05'0 0.0
2017-Sep-26 11:00N 69°44' E 030°05'0 0.0
2017-Sep-26 10:29N 69°44' E 030°05'0 0.0
2017-Sep-26 10:00N 69°44' E 030°05'0 0.0
2017-Sep-26 09:30N 69°44' E 030°05'0 0.0
2017-Sep-26 09:00N 69°44' E 030°05'0 0.0
2017-Sep-26 08:29N 69°44' E 030°05'0 0.0
2017-Sep-26 08:00N 69°44' E 030°05'0 0.0
2017-Sep-26 07:29N 69°44' E 030°05'0 0.0
2017-Sep-26 07:00N 69°44' E 030°05'0 0.0
2017-Sep-26 06:29N 69°44' E 030°05'0 0.0
2017-Sep-26 06:00N 69°44' E 030°05'0 0.0
2017-Sep-26 05:30N 69°44' E 030°05'0 0.0
2017-Sep-26 05:00N 69°44' E 030°05'0 0.0
2017-Sep-26 04:30N 69°44' E 030°05'0 0.0
2017-Sep-26 04:00N 69°44' E 030°05'0 0.0
2017-Sep-26 03:30N 69°44' E 030°05'0 0.0
2017-Sep-26 02:59N 69°44' E 030°05'0 0.0
2017-Sep-26 02:30N 69°44' E 030°05'0 0.0
2017-Sep-26 02:00N 69°44' E 030°05'0 0.0
2017-Sep-26 01:30N 69°44' E 030°05'0 0.0
2017-Sep-26 01:00N 69°44' E 030°05'0 0.0
2017-Sep-26 00:30N 69°44' E 030°05'0 0.0
2017-Sep-26 00:00N 69°44' E 030°05'0 0.0
2017-Sep-25 23:30N 69°44' E 030°05'0 0.0
2017-Sep-25 23:00N 69°44' E 030°05'0 0.0
2017-Sep-25 22:30N 69°44' E 030°05'0 0.0
2017-Sep-25 22:00N 69°44' E 030°05'0 0.0
2017-Sep-25 21:30N 69°44' E 030°05'0 0.0
2017-Sep-25 21:00N 69°44' E 030°05'0 0.0
2017-Sep-25 20:30N 69°44' E 030°05'0 0.0
2017-Sep-25 20:00N 69°44' E 030°05'0 0.0
2017-Sep-25 19:30N 69°44' E 030°05'0 0.0
2017-Sep-25 19:00N 69°44' E 030°05'0 0.0
2017-Sep-25 18:30N 69°44' E 030°05'0 0.0
2017-Sep-25 18:00N 69°44' E 030°05'0 0.0
2017-Sep-25 17:30N 69°44' E 030°05'0 0.0
2017-Sep-25 17:00N 69°44' E 030°05'0 0.0
2017-Sep-25 16:30N 69°44' E 030°05'0 0.0
2017-Sep-25 16:00N 69°44' E 030°05'0 0.0
2017-Sep-25 15:30N 69°44' E 030°05'0 0.0
2017-Sep-25 15:00N 69°44' E 030°05'0 0.0
2017-Sep-25 14:30N 69°44' E 030°05'0 0.0
2017-Sep-25 14:00N 69°44' E 030°05'0 0.0
2017-Sep-25 13:30N 69°44' E 030°05'0 0.0
2017-Sep-25 13:00N 69°44' E 030°05'0 0.0
2017-Sep-25 12:30N 69°44' E 030°05'0 0.0
2017-Sep-25 12:00N 69°44' E 030°05'0 0.0
2017-Sep-25 11:30N 69°44' E 030°05'0 0.0
2017-Sep-25 10:59N 69°44' E 030°05'0 0.0
2017-Sep-25 10:30N 69°44' E 030°05'0 0.0
2017-Sep-25 10:00N 69°44' E 030°05'0 0.0
2017-Sep-25 09:30N 69°44' E 030°05'0 0.0
2017-Sep-25 08:59N 69°44' E 030°05'0 0.0
2017-Sep-25 08:30N 69°44' E 030°05'0 0.0
2017-Sep-25 08:00N 69°44' E 030°05'0 0.0
2017-Sep-25 07:30N 69°44' E 030°05'0 0.0
2017-Sep-25 07:00N 69°44' E 030°05'0 0.0
2017-Sep-25 06:30N 69°44' E 030°05'0 0.0
2017-Sep-25 06:00N 69°44' E 030°05'0 0.0
2017-Sep-25 05:30N 69°44' E 030°05'0 0.0
2017-Sep-25 05:00N 69°44' E 030°05'0 0.0
2017-Sep-25 04:30N 69°44' E 030°05'0 0.0
2017-Sep-25 03:59N 69°44' E 030°05'0 0.0
2017-Sep-25 03:29N 69°44' E 030°05'0 0.0
2017-Sep-25 02:59N 69°44' E 030°05'0 0.0
2017-Sep-25 02:30N 69°44' E 030°05'0 0.0
2017-Sep-25 02:00N 69°44' E 030°05'0 0.0
2017-Sep-25 01:30N 69°44' E 030°05'0 0.0
2017-Sep-25 01:00N 69°44' E 030°05'0 0.0
2017-Sep-25 00:30N 69°44' E 030°05'0 0.0
2017-Sep-25 00:00N 69°44' E 030°05'0 0.0
2017-Sep-24 23:30N 69°44' E 030°05'0 0.0
2017-Sep-24 23:00N 69°44' E 030°05'0 0.0
2017-Sep-24 22:30N 69°44' E 030°05'0 0.0
2017-Sep-24 21:59N 69°44' E 030°05'0 0.0
2017-Sep-24 21:30N 69°44' E 030°05'0 0.0
2017-Sep-24 20:59N 69°44' E 030°05'0 0.0
2017-Sep-24 20:30N 69°44' E 030°05'0 0.0
2017-Sep-24 19:59N 69°44' E 030°05'0 0.0
2017-Sep-24 19:30N 69°44' E 030°05'0 0.0
2017-Sep-24 19:00N 69°44' E 030°05'0 0.0
2017-Sep-24 18:30N 69°44' E 030°05'0 0.0
2017-Sep-24 17:59N 69°44' E 030°05'0 0.0
2017-Sep-24 17:29N 69°44' E 030°05'0 0.0
2017-Sep-24 17:00N 69°44' E 030°05'0 0.0
2017-Sep-24 16:29N 69°44' E 030°05'0 0.0
2017-Sep-24 16:00N 69°44' E 030°05'0 0.0
2017-Sep-24 15:30N 69°44' E 030°05'0 0.0
2017-Sep-24 15:00N 69°44' E 030°05'0 0.0
2017-Sep-24 14:30N 69°44' E 030°05'0 0.0
2017-Sep-24 14:00N 69°44' E 030°05'0 0.0
2017-Sep-24 13:30N 69°44' E 030°05'0 0.0
2017-Sep-24 13:00N 69°44' E 030°05'0 0.0
2017-Sep-24 12:30N 69°44' E 030°05'0 0.0
2017-Sep-24 11:59N 69°44' E 030°05'0 0.0
2017-Sep-24 11:30N 69°44' E 030°05'0 0.0
2017-Sep-24 11:00N 69°44' E 030°05'0 0.0
2017-Sep-24 10:30N 69°44' E 030°05'0 0.0
2017-Sep-24 10:00N 69°44' E 030°05'0 0.0
2017-Sep-24 09:30N 69°44' E 030°05'0 0.0
2017-Sep-24 09:00N 69°44' E 030°05'0 0.0
2017-Sep-24 08:30N 69°44' E 030°05'0 0.0
2017-Sep-24 08:00N 69°44' E 030°05'0 0.0
2017-Sep-24 07:30N 69°44' E 030°05'0 0.0
2017-Sep-24 07:00N 69°44' E 030°05'0 0.0
2017-Sep-24 06:30N 69°44' E 030°05'0 0.0
2017-Sep-24 06:00N 69°44' E 030°05'0 0.0
2017-Sep-24 05:30N 69°44' E 030°05'0 0.0
2017-Sep-24 05:00N 69°44' E 030°05'0 0.0
2017-Sep-24 04:30N 69°44' E 030°05'0 0.0
2017-Sep-24 04:00N 69°44' E 030°05'0 0.0
2017-Sep-24 03:30N 69°44' E 030°05'0 0.0
2017-Sep-24 03:00N 69°44' E 030°05'0 0.0
2017-Sep-24 02:30N 69°44' E 030°05'0 0.0
2017-Sep-24 02:00N 69°44' E 030°05'0 0.0
2017-Sep-24 01:30N 69°44' E 030°05'0 0.0
2017-Sep-24 01:00N 69°44' E 030°05'0 0.0
2017-Sep-24 00:31N 69°44' E 030°05'0 0.0
2017-Sep-24 00:00N 69°44' E 030°05'0 0.0
2017-Sep-23 23:30N 69°44' E 030°05'0 0.0
2017-Sep-23 23:00N 69°44' E 030°05'0 0.0
2017-Sep-23 22:30N 69°44' E 030°05'0 0.0
2017-Sep-23 22:01N 69°44' E 030°05'0 0.0
2017-Sep-23 21:30N 69°44' E 030°05'0 0.0
2017-Sep-23 21:00N 69°44' E 030°05'0 0.0
2017-Sep-23 20:30N 69°44' E 030°05'0 0.0
2017-Sep-23 20:00N 69°44' E 030°05'78 1.9
2017-Sep-22 01:59N 68°57' E 033°02'0 0.0
2017-Sep-22 01:29N 68°57' E 033°02'0 0.0
2017-Sep-22 00:59N 68°57' E 033°02'0 0.0
2017-Sep-22 00:29N 68°57' E 033°02'0 0.0
2017-Sep-21 23:59N 68°57' E 033°02'0 0.0
2017-Sep-21 23:29N 68°57' E 033°02'0 0.0
2017-Sep-21 22:56N 68°57' E 033°02'0 0.0
2017-Sep-21 22:29N 68°57' E 033°02'0 0.0
2017-Sep-21 21:59N 68°57' E 033°02'0 0.0
2017-Sep-21 21:29N 68°57' E 033°02'0 0.0
2017-Sep-21 20:59N 68°57' E 033°02'0 0.0
2017-Sep-21 20:29N 68°57' E 033°02'0 0.0
2017-Sep-21 19:59N 68°57' E 033°02'0 0.0
2017-Sep-21 19:29N 68°57' E 033°02'0 0.0
2017-Sep-21 18:59N 68°57' E 033°02'0 0.0
2017-Sep-21 18:29N 68°57' E 033°02'0 0.0
2017-Sep-21 17:59N 68°57' E 033°02'0 0.0
2017-Sep-21 17:29N 68°57' E 033°02'0 0.0
2017-Sep-21 16:59N 68°57' E 033°02'0 0.0
2017-Sep-21 16:29N 68°57' E 033°02'0 0.0
2017-Sep-21 15:59N 68°57' E 033°02'0 0.0
2017-Sep-21 15:29N 68°57' E 033°02'0 0.0
2017-Sep-21 15:00N 68°57' E 033°02'0 0.0
2017-Sep-21 14:30N 68°57' E 033°02'0 0.0
2017-Sep-21 14:00N 68°57' E 033°02'0 0.0
2017-Sep-21 13:30N 68°57' E 033°02'0 0.0
2017-Sep-21 12:57N 68°57' E 033°02'0 0.0
2017-Sep-21 12:30N 68°57' E 033°02'0 0.0
2017-Sep-21 11:57N 68°57' E 033°02'0 0.0
2017-Sep-21 11:27N 68°57' E 033°02'0 0.0
2017-Sep-21 11:00N 68°57' E 033°02'0 0.0
2017-Sep-21 10:27N 68°57' E 033°02'0 0.0
2017-Sep-21 10:00N 68°57' E 033°02'0 0.0
2017-Sep-21 09:30N 68°57' E 033°02'0 0.0
2017-Sep-21 09:00N 68°57' E 033°02'0 0.0
2017-Sep-21 08:30N 68°57' E 033°02'0 0.0
2017-Sep-21 08:00N 68°57' E 033°02'0 0.0
2017-Sep-21 07:30N 68°57' E 033°02'0 0.0
2017-Sep-21 06:58N 68°57' E 033°02'0 0.0
2017-Sep-21 06:28N 68°57' E 033°02'0 0.0
2017-Sep-21 05:58N 68°57' E 033°02'0 0.0
2017-Sep-21 05:28N 68°57' E 033°02'0 0.0
2017-Sep-21 04:58N 68°57' E 033°02'0 0.0
2017-Sep-21 04:28N 68°57' E 033°02'0 0.0
2017-Sep-21 03:58N 68°57' E 033°02'0 0.0
2017-Sep-21 03:28N 68°57' E 033°02'0 0.0
2017-Sep-21 02:58N 68°57' E 033°02'0 0.0
2017-Sep-21 02:28N 68°57' E 033°02'0 0.0
2017-Sep-21 01:55N 68°57' E 033°02'0 0.0
2017-Sep-21 01:28N 68°57' E 033°02'0 0.0
2017-Sep-21 00:58N 68°57' E 033°02'0 0.0
2017-Sep-21 00:28N 68°57' E 033°02'0 0.0
2017-Sep-20 23:58N 68°57' E 033°02'0 0.0
2017-Sep-20 23:25N 68°57' E 033°02'0 0.0
2017-Sep-20 22:58N 68°57' E 033°02'0 0.0
2017-Sep-20 22:28N 68°57' E 033°02'0 0.0
2017-Sep-20 21:58N 68°57' E 033°02'0 0.0
2017-Sep-20 21:28N 68°57' E 033°02'0 0.0
2017-Sep-20 20:58N 68°57' E 033°02'0 0.0
2017-Sep-20 20:28N 68°57' E 033°02'0 0.0
2017-Sep-20 19:58N 68°57' E 033°02'0 0.0
2017-Sep-20 19:28N 68°57' E 033°02'0 0.0
2017-Sep-20 18:58N 68°57' E 033°02'0 0.0
2017-Sep-20 18:28N 68°57' E 033°02'0 0.0
2017-Sep-20 17:58N 68°57' E 033°02'0 0.0
2017-Sep-20 17:28N 68°57' E 033°02'0 0.0
2017-Sep-20 16:58N 68°57' E 033°02'0 0.0
2017-Sep-20 16:28N 68°57' E 033°02'0 0.0
2017-Sep-20 15:58N 68°57' E 033°02'0 0.0
2017-Sep-20 15:28N 68°57' E 033°02'0 0.0
2017-Sep-20 14:58N 68°57' E 033°02'0 0.0
2017-Sep-20 13:58N 68°57' E 033°02'0 0.0
2017-Sep-20 13:28N 68°57' E 033°02'0 0.0
2017-Sep-20 12:58N 68°57' E 033°02'0 0.0
2017-Sep-20 12:28N 68°57' E 033°02'0 0.0
2017-Sep-20 11:58N 68°57' E 033°02'0 0.0
2017-Sep-20 11:28N 68°57' E 033°02'0 0.0
2017-Sep-20 10:58N 68°57' E 033°02'0 0.0
2017-Sep-20 10:28N 68°57' E 033°02'0 0.0
2017-Sep-20 09:58N 68°57' E 033°02'0 0.0
2017-Sep-20 09:28N 68°57' E 033°02'0 0.0
2017-Sep-20 08:58N 68°57' E 033°02'0 0.0
2017-Sep-20 08:28N 68°57' E 033°02'0 0.0
2017-Sep-20 07:58N 68°57' E 033°02'0 0.0
2017-Sep-20 07:28N 68°57' E 033°02'0 0.0
2017-Sep-20 06:58N 68°57' E 033°02'0 0.0
2017-Sep-20 06:28N 68°57' E 033°02'0 0.0
2017-Sep-20 05:58N 68°57' E 033°02'0 0.0
2017-Sep-20 05:28N 68°57' E 033°02'0 0.0
2017-Sep-20 04:58N 68°57' E 033°02'0 0.0
2017-Sep-20 04:28N 68°57' E 033°02'0 0.0
2017-Sep-20 03:58N 68°57' E 033°02'0 0.0
2017-Sep-20 03:28N 68°57' E 033°02'0 0.0
2017-Sep-20 02:58N 68°57' E 033°02'0 0.0
2017-Sep-20 02:28N 68°57' E 033°02'0 0.0
2017-Sep-20 01:58N 68°57' E 033°02'0 0.0
2017-Sep-20 01:28N 68°57' E 033°02'0 0.0
2017-Sep-20 00:58N 68°57' E 033°02'0 0.0
2017-Sep-20 00:30N 68°57' E 033°02'0 0.0
2017-Sep-20 00:00N 68°57' E 033°02'0 0.0
2017-Sep-19 23:30N 68°57' E 033°02'0 0.0
2017-Sep-19 23:00N 68°57' E 033°02'0 0.0
2017-Sep-19 22:29N 68°57' E 033°02'0 0.0
2017-Sep-19 21:59N 68°57' E 033°02'0 0.0
2017-Sep-19 21:29N 68°57' E 033°02'0 0.0
2017-Sep-19 20:59N 68°57' E 033°02'0 0.0
2017-Sep-19 20:29N 68°57' E 033°02'0 0.0
2017-Sep-19 19:59N 68°57' E 033°02'0 0.0
2017-Sep-19 19:29N 68°57' E 033°02'0 0.0
2017-Sep-19 18:59N 68°57' E 033°02'0 0.0
2017-Sep-19 18:29N 68°57' E 033°02'0 0.0
2017-Sep-19 17:59N 68°57' E 033°02'0 0.0
2017-Sep-19 17:29N 68°57' E 033°02'0 0.0
2017-Sep-19 16:59N 68°57' E 033°02'0 0.0
2017-Sep-19 16:29N 68°57' E 033°02'0 0.0
2017-Sep-19 15:59N 68°57' E 033°02'0 0.0
2017-Sep-19 15:29N 68°57' E 033°02'0 0.0
2017-Sep-19 14:59N 68°57' E 033°02'0 0.0
2017-Sep-19 14:29N 68°57' E 033°02'0 0.0
2017-Sep-19 13:56N 68°57' E 033°02'0 0.0
2017-Sep-19 13:29N 68°57' E 033°02'0 0.0
2017-Sep-19 12:59N 68°57' E 033°02'0 0.0
2017-Sep-19 12:29N 68°57' E 033°02'0 0.0
2017-Sep-19 11:59N 68°57' E 033°02'0 0.0
2017-Sep-19 11:29N 68°57' E 033°02'0 0.0
2017-Sep-19 10:59N 68°57' E 033°02'0 0.0
2017-Sep-19 10:29N 68°57' E 033°02'0 0.0
2017-Sep-19 09:59N 68°57' E 033°02'0 0.0
2017-Sep-19 09:29N 68°57' E 033°02'0 0.0
2017-Sep-19 08:59N 68°57' E 033°02'0 0.0
2017-Sep-19 08:29N 68°57' E 033°02'0 0.0
2017-Sep-19 07:59N 68°57' E 033°02'0 0.0
2017-Sep-19 07:29N 68°57' E 033°02'0 0.0
2017-Sep-19 06:59N 68°57' E 033°02'0 0.0
2017-Sep-19 06:29N 68°57' E 033°02'0 0.0
2017-Sep-19 05:59N 68°57' E 033°02'0 0.0
2017-Sep-19 05:29N 68°57' E 033°02'0 0.6
2017-Sep-19 04:59N 68°57' E 033°02'0 0.0
2017-Sep-19 04:29N 68°57' E 033°02'0 0.0
2017-Sep-19 03:59N 68°57' E 033°02'0 0.0
2017-Sep-19 03:29N 68°57' E 033°02'0 0.0
2017-Sep-19 02:59N 68°57' E 033°02'0 0.0
2017-Sep-19 02:29N 68°57' E 033°02'0 0.0
2017-Sep-19 01:59N 68°57' E 033°02'0 0.0
2017-Sep-19 01:29N 68°57' E 033°02'0 0.0
2017-Sep-19 00:59N 68°57' E 033°02'0 0.0
2017-Sep-19 00:29N 68°57' E 033°02'0 0.0
2017-Sep-18 23:59N 68°57' E 033°02'0 0.0
2017-Sep-18 23:28N 68°57' E 033°02'0 0.0
2017-Sep-18 22:58N 68°57' E 033°02'0 0.0
2017-Sep-18 22:28N 68°57' E 033°02'0 0.0
2017-Sep-18 21:58N 68°57' E 033°02'0 0.0
2017-Sep-18 21:28N 68°57' E 033°02'0 0.0
2017-Sep-18 20:58N 68°57' E 033°02'0 0.0
2017-Sep-18 20:28N 68°57' E 033°02'0 0.0
2017-Sep-18 19:58N 68°57' E 033°02'0 0.0
2017-Sep-18 19:28N 68°57' E 033°02'0 0.0
2017-Sep-18 18:58N 68°57' E 033°02'0 0.0
2017-Sep-18 18:28N 68°57' E 033°02'0 0.0
2017-Sep-18 17:58N 68°57' E 033°02'0 0.0
2017-Sep-18 17:28N 68°57' E 033°02'0 0.0
2017-Sep-18 16:58N 68°57' E 033°02'0 0.0
2017-Sep-18 16:28N 68°57' E 033°02'0 0.0
2017-Sep-18 15:58N 68°57' E 033°02'0 0.0
2017-Sep-18 15:28N 68°57' E 033°02'0 0.0
2017-Sep-18 14:58N 68°57' E 033°02'0 0.0
2017-Sep-18 14:28N 68°57' E 033°02'0 0.0
2017-Sep-18 13:58N 68°57' E 033°02'0 0.0
2017-Sep-18 13:28N 68°57' E 033°02'0 0.0
2017-Sep-18 12:58N 68°57' E 033°02'0 0.0
2017-Sep-18 12:28N 68°57' E 033°02'0 0.0
2017-Sep-18 11:58N 68°57' E 033°02'0 0.0
2017-Sep-18 11:28N 68°57' E 033°02'0 0.0
2017-Sep-18 10:58N 68°57' E 033°02'0 0.0
2017-Sep-18 10:28N 68°57' E 033°02'0 0.0
2017-Sep-18 09:58N 68°57' E 033°02'0 0.0
2017-Sep-18 09:28N 68°57' E 033°02'0 0.0
2017-Sep-18 08:58N 68°57' E 033°02'0 0.0
2017-Sep-18 08:28N 68°57' E 033°02'0 0.0
2017-Sep-18 07:58N 68°57' E 033°02'0 0.0
2017-Sep-18 07:28N 68°57' E 033°02'0 0.0
2017-Sep-18 06:58N 68°57' E 033°02'0 0.0
2017-Sep-18 06:28N 68°57' E 033°02'0 0.0
2017-Sep-18 05:58N 68°57' E 033°02'0 0.0
2017-Sep-18 05:28N 68°57' E 033°02'0 0.0
2017-Sep-18 04:58N 68°57' E 033°02'0 0.0
2017-Sep-18 04:28N 68°57' E 033°02'0 0.0
2017-Sep-18 03:58N 68°57' E 033°02'0 0.0
2017-Sep-18 03:28N 68°57' E 033°02'0 0.0
2017-Sep-18 02:58N 68°57' E 033°02'0 0.0
2017-Sep-18 02:28N 68°57' E 033°02'0 0.0
2017-Sep-18 01:58N 68°57' E 033°02'0 0.0
2017-Sep-18 01:28N 68°57' E 033°02'0 0.0
2017-Sep-18 00:58N 68°57' E 033°02'0 0.0
2017-Sep-18 00:28N 68°57' E 033°02'0 0.0
2017-Sep-17 23:58N 68°57' E 033°02'0 0.0
2017-Sep-17 23:28N 68°57' E 033°02'0 0.0
2017-Sep-17 22:55N 68°57' E 033°02'0 0.0
2017-Sep-17 22:28N 68°57' E 033°02'0 0.0
2017-Sep-17 21:58N 68°57' E 033°02'0 0.0
2017-Sep-17 21:28N 68°57' E 033°02'0 0.0
2017-Sep-17 20:58N 68°57' E 033°02'0 0.0
2017-Sep-17 20:28N 68°57' E 033°02'0 0.0
2017-Sep-17 19:58N 68°57' E 033°02'0 0.0
2017-Sep-17 19:28N 68°57' E 033°02'0 0.0
2017-Sep-17 18:58N 68°57' E 033°02'0 0.0
2017-Sep-17 18:28N 68°57' E 033°02'0 0.0
2017-Sep-17 17:58N 68°57' E 033°02'0 0.0
2017-Sep-17 17:28N 68°57' E 033°02'0 0.0
2017-Sep-17 16:58N 68°57' E 033°02'0 0.0
2017-Sep-17 16:28N 68°57' E 033°02'0 0.0
2017-Sep-17 15:58N 68°57' E 033°02'0 0.0
2017-Sep-17 15:28N 68°57' E 033°02'0 0.0
2017-Sep-17 14:58N 68°57' E 033°02'0 0.0
2017-Sep-17 14:28N 68°57' E 033°02'0 0.0
2017-Sep-17 13:58N 68°57' E 033°02'0 0.0
2017-Sep-17 13:28N 68°57' E 033°02'0 0.0
2017-Sep-17 12:58N 68°57' E 033°02'0 0.0
2017-Sep-17 12:28N 68°57' E 033°02'0 0.0
2017-Sep-17 11:58N 68°57' E 033°02'0 0.0
2017-Sep-17 11:28N 68°57' E 033°02'0 0.0
2017-Sep-17 10:58N 68°57' E 033°02'0 0.0
2017-Sep-17 10:28N 68°57' E 033°02'0 0.0
2017-Sep-17 09:58N 68°57' E 033°02'0 0.0
2017-Sep-17 09:28N 68°57' E 033°02'0 0.0
2017-Sep-17 08:58N 68°57' E 033°02'0 0.0
2017-Sep-17 08:28N 68°57' E 033°02'0 0.0
2017-Sep-17 07:58N 68°57' E 033°02'0 0.0
2017-Sep-17 07:28N 68°57' E 033°02'0 0.0
2017-Sep-17 06:58N 68°57' E 033°02'0 0.0
2017-Sep-17 06:28N 68°57' E 033°02'0 0.0
2017-Sep-17 05:58N 68°57' E 033°02'0 0.0
2017-Sep-17 05:28N 68°57' E 033°02'0 0.0
2017-Sep-17 04:58N 68°57' E 033°02'0 0.0
2017-Sep-17 04:28N 68°57' E 033°02'0 0.3
2017-Sep-17 04:01N 68°57' E 033°01'0 0.7
2017-Sep-17 03:28N 68°57' E 033°02'0 0.0
2017-Sep-17 02:58N 68°57' E 033°02'0 0.0
2017-Sep-17 02:28N 68°57' E 033°02'0 0.0
2017-Sep-17 01:58N 68°57' E 033°02'0 0.0
2017-Sep-17 01:28N 68°57' E 033°02'0 0.0
2017-Sep-17 00:58N 68°57' E 033°02'0 0.0
2017-Sep-17 00:28N 68°57' E 033°02'  
Track history (hours):
 
Tides and Currents Weather Stations Pressure Air Temp Water Temp Dewpoint Dewpoint Depression Visibility Wind Speed Wind Dir Waves Ship Positions

Ll Antias

Last reported at 2017-Sep-27 00:03 UTC. Time now 2017-Oct-19 07:17 UTC.
Position N 70°10' E 032°01'.
Warning: this ship's position is 22 days out of date.

Length 53 m; draft 6 m.

Type: Fishing. MMSI: 273843800.

Date/timePositionNaut miles runAvg speedWind from/ knotsBaromVisibWave heightAir tempDewpointWater temp
2017-Sep-27 00:03N 70°10' E 032°01'0 0.5
2017-Sep-27 00:00N 70°10' E 032°01'2 3.5
2017-Sep-26 23:30N 70°10' E 031°56'4 8.5
2017-Sep-26 23:00N 70°09' E 031°44'3 5.8
2017-Sep-26 22:30N 70°08' E 031°36'3 6.1
2017-Sep-26 21:59N 70°07' E 031°28'3 6.5
2017-Sep-26 21:29N 70°05' E 031°19'3 6.9
2017-Sep-26 21:00N 70°04' E 031°10'3 6.8
2017-Sep-26 20:30N 70°02' E 031°02'3 6.8
2017-Sep-26 20:00N 70°01' E 030°53'4 7.1
2017-Sep-26 19:30N 69°59' E 030°44'4 7.2
2017-Sep-26 19:00N 69°58' E 030°34'4 7.2
2017-Sep-26 18:30N 69°56' E 030°25'4 7.4
2017-Sep-26 18:00N 69°54' E 030°15'3 6.7
2017-Sep-26 17:30N 69°52' E 030°08'3 6.7
2017-Sep-26 17:00N 69°49' E 030°07'3 6.7
2017-Sep-26 16:30N 69°45' E 030°05'2 3.5
2017-Sep-26 16:00N 69°44' E 030°05'0 0.0
2017-Sep-26 15:29N 69°44' E 030°05'0 0.0
2017-Sep-26 15:00N 69°44' E 030°05'0 0.0
2017-Sep-26 14:29N 69°44' E 030°05'0 0.0
2017-Sep-26 14:00N 69°44' E 030°05'0 0.0
2017-Sep-26 13:30N 69°44' E 030°05'0 0.0
2017-Sep-26 13:00N 69°44' E 030°05'0 0.0
2017-Sep-26 12:30N 69°44' E 030°05'0 0.0
2017-Sep-26 12:00N 69°44' E 030°05'0 0.0
2017-Sep-26 11:30N 69°44' E 030°05'0 0.0
2017-Sep-26 11:00N 69°44' E 030°05'0 0.0
2017-Sep-26 10:29N 69°44' E 030°05'0 0.0
2017-Sep-26 10:00N 69°44' E 030°05'0 0.0
2017-Sep-26 09:30N 69°44' E 030°05'0 0.0
2017-Sep-26 09:00N 69°44' E 030°05'0 0.0
2017-Sep-26 08:29N 69°44' E 030°05'0 0.0
2017-Sep-26 08:00N 69°44' E 030°05'0 0.0
2017-Sep-26 07:29N 69°44' E 030°05'0 0.0
2017-Sep-26 07:00N 69°44' E 030°05'0 0.0
2017-Sep-26 06:29N 69°44' E 030°05'0 0.0
2017-Sep-26 06:00N 69°44' E 030°05'0 0.0
2017-Sep-26 05:30N 69°44' E 030°05'0 0.0
2017-Sep-26 05:00N 69°44' E 030°05'0 0.0
2017-Sep-26 04:30N 69°44' E 030°05'0 0.0
2017-Sep-26 04:00N 69°44' E 030°05'0 0.0
2017-Sep-26 03:30N 69°44' E 030°05'0 0.0
2017-Sep-26 02:59N 69°44' E 030°05'0 0.0
2017-Sep-26 02:30N 69°44' E 030°05'0 0.0
2017-Sep-26 02:00N 69°44' E 030°05'0 0.0
2017-Sep-26 01:30N 69°44' E 030°05'0 0.0
2017-Sep-26 01:00N 69°44' E 030°05'0 0.0
2017-Sep-26 00:30N 69°44' E 030°05'0 0.0
2017-Sep-26 00:00N 69°44' E 030°05'0 0.0
2017-Sep-25 23:30N 69°44' E 030°05'0 0.0
2017-Sep-25 23:00N 69°44' E 030°05'0 0.0
2017-Sep-25 22:30N 69°44' E 030°05'0 0.0
2017-Sep-25 22:00N 69°44' E 030°05'0 0.0
2017-Sep-25 21:30N 69°44' E 030°05'0 0.0
2017-Sep-25 21:00N 69°44' E 030°05'0 0.0
2017-Sep-25 20:30N 69°44' E 030°05'0 0.0
2017-Sep-25 20:00N 69°44' E 030°05'0 0.0
2017-Sep-25 19:30N 69°44' E 030°05'0 0.0
2017-Sep-25 19:00N 69°44' E 030°05'0 0.0
2017-Sep-25 18:30N 69°44' E 030°05'0 0.0
2017-Sep-25 18:00N 69°44' E 030°05'0 0.0
2017-Sep-25 17:30N 69°44' E 030°05'0 0.0
2017-Sep-25 17:00N 69°44' E 030°05'0 0.0
2017-Sep-25 16:30N 69°44' E 030°05'0 0.0
2017-Sep-25 16:00N 69°44' E 030°05'0 0.0
2017-Sep-25 15:30N 69°44' E 030°05'0 0.0
2017-Sep-25 15:00N 69°44' E 030°05'0 0.0
2017-Sep-25 14:30N 69°44' E 030°05'0 0.0
2017-Sep-25 14:00N 69°44' E 030°05'0 0.0
2017-Sep-25 13:30N 69°44' E 030°05'0 0.0
2017-Sep-25 13:00N 69°44' E 030°05'0 0.0
2017-Sep-25 12:30N 69°44' E 030°05'0 0.0
2017-Sep-25 12:00N 69°44' E 030°05'0 0.0
2017-Sep-25 11:30N 69°44' E 030°05'0 0.0
2017-Sep-25 10:59N 69°44' E 030°05'0 0.0
2017-Sep-25 10:30N 69°44' E 030°05'0 0.0
2017-Sep-25 10:00N 69°44' E 030°05'0 0.0
2017-Sep-25 09:30N 69°44' E 030°05'0 0.0
2017-Sep-25 08:59N 69°44' E 030°05'0 0.0
2017-Sep-25 08:30N 69°44' E 030°05'0 0.0
2017-Sep-25 08:00N 69°44' E 030°05'0 0.0
2017-Sep-25 07:30N 69°44' E 030°05'0 0.0
2017-Sep-25 07:00N 69°44' E 030°05'0 0.0
2017-Sep-25 06:30N 69°44' E 030°05'0 0.0
2017-Sep-25 06:00N 69°44' E 030°05'0 0.0
2017-Sep-25 05:30N 69°44' E 030°05'0 0.0
2017-Sep-25 05:00N 69°44' E 030°05'0 0.0
2017-Sep-25 04:30N 69°44' E 030°05'0 0.0
2017-Sep-25 03:59N 69°44' E 030°05'0 0.0
2017-Sep-25 03:29N 69°44' E 030°05'0 0.0
2017-Sep-25 02:59N 69°44' E 030°05'0 0.0
2017-Sep-25 02:30N 69°44' E 030°05'0 0.0
2017-Sep-25 02:00N 69°44' E 030°05'0 0.0
2017-Sep-25 01:30N 69°44' E 030°05'0 0.0
2017-Sep-25 01:00N 69°44' E 030°05'0 0.0
2017-Sep-25 00:30N 69°44' E 030°05'0 0.0
2017-Sep-25 00:00N 69°44' E 030°05'0 0.0
2017-Sep-24 23:30N 69°44' E 030°05'0 0.0
2017-Sep-24 23:00N 69°44' E 030°05'0 0.0
2017-Sep-24 22:30N 69°44' E 030°05'0 0.0
2017-Sep-24 21:59N 69°44' E 030°05'0 0.0
2017-Sep-24 21:30N 69°44' E 030°05'0 0.0
2017-Sep-24 20:59N 69°44' E 030°05'0 0.0
2017-Sep-24 20:30N 69°44' E 030°05'0 0.0
2017-Sep-24 19:59N 69°44' E 030°05'0 0.0
2017-Sep-24 19:30N 69°44' E 030°05'0 0.0
2017-Sep-24 19:00N 69°44' E 030°05'0 0.0
2017-Sep-24 18:30N 69°44' E 030°05'0 0.0
2017-Sep-24 17:59N 69°44' E 030°05'0 0.0
2017-Sep-24 17:29N 69°44' E 030°05'0 0.0
2017-Sep-24 17:00N 69°44' E 030°05'0 0.0
2017-Sep-24 16:29N 69°44' E 030°05'0 0.0
2017-Sep-24 16:00N 69°44' E 030°05'0 0.0
2017-Sep-24 15:30N 69°44' E 030°05'0 0.0
2017-Sep-24 15:00N 69°44' E 030°05'0 0.0
2017-Sep-24 14:30N 69°44' E 030°05'0 0.0
2017-Sep-24 14:00N 69°44' E 030°05'0 0.0
2017-Sep-24 13:30N 69°44' E 030°05'0 0.0
2017-Sep-24 13:00N 69°44' E 030°05'0 0.0
2017-Sep-24 12:30N 69°44' E 030°05'0 0.0
2017-Sep-24 11:59N 69°44' E 030°05'0 0.0
2017-Sep-24 11:30N 69°44' E 030°05'0 0.0
2017-Sep-24 11:00N 69°44' E 030°05'0 0.0
2017-Sep-24 10:30N 69°44' E 030°05'0 0.0
2017-Sep-24 10:00N 69°44' E 030°05'0 0.0
2017-Sep-24 09:30N 69°44' E 030°05'0 0.0
2017-Sep-24 09:00N 69°44' E 030°05'0 0.0
2017-Sep-24 08:30N 69°44' E 030°05'0 0.0
2017-Sep-24 08:00N 69°44' E 030°05'0 0.0
2017-Sep-24 07:30N 69°44' E 030°05'0 0.0
2017-Sep-24 07:00N 69°44' E 030°05'0 0.0
2017-Sep-24 06:30N 69°44' E 030°05'0 0.0
2017-Sep-24 06:00N 69°44' E 030°05'0 0.0
2017-Sep-24 05:30N 69°44' E 030°05'0 0.0
2017-Sep-24 05:00N 69°44' E 030°05'0 0.0
2017-Sep-24 04:30N 69°44' E 030°05'0 0.0
2017-Sep-24 04:00N 69°44' E 030°05'0 0.0
2017-Sep-24 03:30N 69°44' E 030°05'0 0.0
2017-Sep-24 03:00N 69°44' E 030°05'0 0.0
2017-Sep-24 02:30N 69°44' E 030°05'0 0.0
2017-Sep-24 02:00N 69°44' E 030°05'0 0.0
2017-Sep-24 01:30N 69°44' E 030°05'0 0.0
2017-Sep-24 01:00N 69°44' E 030°05'0 0.0
2017-Sep-24 00:31N 69°44' E 030°05'0 0.0
2017-Sep-24 00:00N 69°44' E 030°05'0 0.0
2017-Sep-23 23:30N 69°44' E 030°05'0 0.0
2017-Sep-23 23:00N 69°44' E 030°05'0 0.0
2017-Sep-23 22:30N 69°44' E 030°05'0 0.0
2017-Sep-23 22:01N 69°44' E 030°05'0 0.0
2017-Sep-23 21:30N 69°44' E 030°05'0 0.0
2017-Sep-23 21:00N 69°44' E 030°05'0 0.0
2017-Sep-23 20:30N 69°44' E 030°05'0 0.0
2017-Sep-23 20:00N 69°44' E 030°05'78 1.9
2017-Sep-22 01:59N 68°57' E 033°02'0 0.0
2017-Sep-22 01:29N 68°57' E 033°02'0 0.0
2017-Sep-22 00:59N 68°57' E 033°02'0 0.0
2017-Sep-22 00:29N 68°57' E 033°02'0 0.0
2017-Sep-21 23:59N 68°57' E 033°02'0 0.0
2017-Sep-21 23:29N 68°57' E 033°02'0 0.0
2017-Sep-21 22:56N 68°57' E 033°02'0 0.0
2017-Sep-21 22:29N 68°57' E 033°02'0 0.0
2017-Sep-21 21:59N 68°57' E 033°02'0 0.0
2017-Sep-21 21:29N 68°57' E 033°02'0 0.0
2017-Sep-21 20:59N 68°57' E 033°02'0 0.0
2017-Sep-21 20:29N 68°57' E 033°02'0 0.0
2017-Sep-21 19:59N 68°57' E 033°02'0 0.0
2017-Sep-21 19:29N 68°57' E 033°02'0 0.0
2017-Sep-21 18:59N 68°57' E 033°02'0 0.0
2017-Sep-21 18:29N 68°57' E 033°02'0 0.0
2017-Sep-21 17:59N 68°57' E 033°02'0 0.0
2017-Sep-21 17:29N 68°57' E 033°02'0 0.0
2017-Sep-21 16:59N 68°57' E 033°02'0 0.0
2017-Sep-21 16:29N 68°57' E 033°02'0 0.0
2017-Sep-21 15:59N 68°57' E 033°02'0 0.0
2017-Sep-21 15:29N 68°57' E 033°02'0 0.0
2017-Sep-21 15:00N 68°57' E 033°02'0 0.0
2017-Sep-21 14:30N 68°57' E 033°02'0 0.0
2017-Sep-21 14:00N 68°57' E 033°02'0 0.0
2017-Sep-21 13:30N 68°57' E 033°02'0 0.0
2017-Sep-21 12:57N 68°57' E 033°02'0 0.0
2017-Sep-21 12:30N 68°57' E 033°02'0 0.0
2017-Sep-21 11:57N 68°57' E 033°02'0 0.0
2017-Sep-21 11:27N 68°57' E 033°02'0 0.0
2017-Sep-21 11:00N 68°57' E 033°02'0 0.0
2017-Sep-21 10:27N 68°57' E 033°02'0 0.0
2017-Sep-21 10:00N 68°57' E 033°02'0 0.0
2017-Sep-21 09:30N 68°57' E 033°02'0 0.0
2017-Sep-21 09:00N 68°57' E 033°02'0 0.0
2017-Sep-21 08:30N 68°57' E 033°02'0 0.0
2017-Sep-21 08:00N 68°57' E 033°02'0 0.0
2017-Sep-21 07:30N 68°57' E 033°02'0 0.0
2017-Sep-21 06:58N 68°57' E 033°02'0 0.0
2017-Sep-21 06:28N 68°57' E 033°02'0 0.0
2017-Sep-21 05:58N 68°57' E 033°02'0 0.0
2017-Sep-21 05:28N 68°57' E 033°02'0 0.0
2017-Sep-21 04:58N 68°57' E 033°02'0 0.0
2017-Sep-21 04:28N 68°57' E 033°02'0 0.0
2017-Sep-21 03:58N 68°57' E 033°02'0 0.0
2017-Sep-21 03:28N 68°57' E 033°02'0 0.0
2017-Sep-21 02:58N 68°57' E 033°02'0 0.0
2017-Sep-21 02:28N 68°57' E 033°02'0 0.0
2017-Sep-21 01:55N 68°57' E 033°02'0 0.0
2017-Sep-21 01:28N 68°57' E 033°02'0 0.0
2017-Sep-21 00:58N 68°57' E 033°02'0 0.0
2017-Sep-21 00:28N 68°57' E 033°02'0 0.0
2017-Sep-20 23:58N 68°57' E 033°02'0 0.0
2017-Sep-20 23:25N 68°57' E 033°02'0 0.0
2017-Sep-20 22:58N 68°57' E 033°02'0 0.0
2017-Sep-20 22:28N 68°57' E 033°02'0 0.0
2017-Sep-20 21:58N 68°57' E 033°02'0 0.0
2017-Sep-20 21:28N 68°57' E 033°02'0 0.0
2017-Sep-20 20:58N 68°57' E 033°02'0 0.0
2017-Sep-20 20:28N 68°57' E 033°02'0 0.0
2017-Sep-20 19:58N 68°57' E 033°02'0 0.0
2017-Sep-20 19:28N 68°57' E 033°02'0 0.0
2017-Sep-20 18:58N 68°57' E 033°02'0 0.0
2017-Sep-20 18:28N 68°57' E 033°02'0 0.0
2017-Sep-20 17:58N 68°57' E 033°02'0 0.0
2017-Sep-20 17:28N 68°57' E 033°02'0 0.0
2017-Sep-20 16:58N 68°57' E 033°02'0 0.0
2017-Sep-20 16:28N 68°57' E 033°02'0 0.0
2017-Sep-20 15:58N 68°57' E 033°02'0 0.0
2017-Sep-20 15:28N 68°57' E 033°02'0 0.0
2017-Sep-20 14:58N 68°57' E 033°02'0 0.0
2017-Sep-20 13:58N 68°57' E 033°02'0 0.0
2017-Sep-20 13:28N 68°57' E 033°02'0 0.0
2017-Sep-20 12:58N 68°57' E 033°02'0 0.0
2017-Sep-20 12:28N 68°57' E 033°02'0 0.0
2017-Sep-20 11:58N 68°57' E 033°02'0 0.0
2017-Sep-20 11:28N 68°57' E 033°02'0 0.0
2017-Sep-20 10:58N 68°57' E 033°02'0 0.0
2017-Sep-20 10:28N 68°57' E 033°02'0 0.0
2017-Sep-20 09:58N 68°57' E 033°02'0 0.0
2017-Sep-20 09:28N 68°57' E 033°02'0 0.0
2017-Sep-20 08:58N 68°57' E 033°02'0 0.0
2017-Sep-20 08:28N 68°57' E 033°02'0 0.0
2017-Sep-20 07:58N 68°57' E 033°02'0 0.0
2017-Sep-20 07:28N 68°57' E 033°02'0 0.0
2017-Sep-20 06:58N 68°57' E 033°02'0 0.0
2017-Sep-20 06:28N 68°57' E 033°02'0 0.0
2017-Sep-20 05:58N 68°57' E 033°02'0 0.0
2017-Sep-20 05:28N 68°57' E 033°02'0 0.0
2017-Sep-20 04:58N 68°57' E 033°02'0 0.0
2017-Sep-20 04:28N 68°57' E 033°02'0 0.0
2017-Sep-20 03:58N 68°57' E 033°02'0 0.0
2017-Sep-20 03:28N 68°57' E 033°02'0 0.0
2017-Sep-20 02:58N 68°57' E 033°02'0 0.0
2017-Sep-20 02:28N 68°57' E 033°02'0 0.0
2017-Sep-20 01:58N 68°57' E 033°02'0 0.0
2017-Sep-20 01:28N 68°57' E 033°02'0 0.0
2017-Sep-20 00:58N 68°57' E 033°02'0 0.0
2017-Sep-20 00:30N 68°57' E 033°02'0 0.0
2017-Sep-20 00:00N 68°57' E 033°02'0 0.0
2017-Sep-19 23:30N 68°57' E 033°02'0 0.0
2017-Sep-19 23:00N 68°57' E 033°02'0 0.0
2017-Sep-19 22:29N 68°57' E 033°02'0 0.0
2017-Sep-19 21:59N 68°57' E 033°02'0 0.0
2017-Sep-19 21:29N 68°57' E 033°02'0 0.0
2017-Sep-19 20:59N 68°57' E 033°02'0 0.0
2017-Sep-19 20:29N 68°57' E 033°02'0 0.0
2017-Sep-19 19:59N 68°57' E 033°02'0 0.0
2017-Sep-19 19:29N 68°57' E 033°02'0 0.0
2017-Sep-19 18:59N 68°57' E 033°02'0 0.0
2017-Sep-19 18:29N 68°57' E 033°02'0 0.0
2017-Sep-19 17:59N 68°57' E 033°02'0 0.0
2017-Sep-19 17:29N 68°57' E 033°02'0 0.0
2017-Sep-19 16:59N 68°57' E 033°02'0 0.0
2017-Sep-19 16:29N 68°57' E 033°02'0 0.0
2017-Sep-19 15:59N 68°57' E 033°02'0 0.0
2017-Sep-19 15:29N 68°57' E 033°02'0 0.0
2017-Sep-19 14:59N 68°57' E 033°02'0 0.0
2017-Sep-19 14:29N 68°57' E 033°02'0 0.0
2017-Sep-19 13:56N 68°57' E 033°02'0 0.0
2017-Sep-19 13:29N 68°57' E 033°02'0 0.0
2017-Sep-19 12:59N 68°57' E 033°02'0 0.0
2017-Sep-19 12:29N 68°57' E 033°02'0 0.0
2017-Sep-19 11:59N 68°57' E 033°02'0 0.0
2017-Sep-19 11:29N 68°57' E 033°02'0 0.0
2017-Sep-19 10:59N 68°57' E 033°02'0 0.0
2017-Sep-19 10:29N 68°57' E 033°02'0 0.0
2017-Sep-19 09:59N 68°57' E 033°02'0 0.0
2017-Sep-19 09:29N 68°57' E 033°02'0 0.0
2017-Sep-19 08:59N 68°57' E 033°02'0 0.0
2017-Sep-19 08:29N 68°57' E 033°02'0 0.0
2017-Sep-19 07:59N 68°57' E 033°02'0 0.0
2017-Sep-19 07:29N 68°57' E 033°02'0 0.0
2017-Sep-19 06:59N 68°57' E 033°02'0 0.0
2017-Sep-19 06:29N 68°57' E 033°02'0 0.0
2017-Sep-19 05:59N 68°57' E 033°02'0 0.0
2017-Sep-19 05:29N 68°57' E 033°02'0 0.6
2017-Sep-19 04:59N 68°57' E 033°02'0 0.0
2017-Sep-19 04:29N 68°57' E 033°02'0 0.0
2017-Sep-19 03:59N 68°57' E 033°02'0 0.0
2017-Sep-19 03:29N 68°57' E 033°02'0 0.0
2017-Sep-19 02:59N 68°57' E 033°02'0 0.0
2017-Sep-19 02:29N 68°57' E 033°02'0 0.0
2017-Sep-19 01:59N 68°57' E 033°02'0 0.0
2017-Sep-19 01:29N 68°57' E 033°02'0 0.0
2017-Sep-19 00:59N 68°57' E 033°02'0 0.0
2017-Sep-19 00:29N 68°57' E 033°02'0 0.0
2017-Sep-18 23:59N 68°57' E 033°02'0 0.0
2017-Sep-18 23:28N 68°57' E 033°02'0 0.0
2017-Sep-18 22:58N 68°57' E 033°02'0 0.0
2017-Sep-18 22:28N 68°57' E 033°02'0 0.0
2017-Sep-18 21:58N 68°57' E 033°02'0 0.0
2017-Sep-18 21:28N 68°57' E 033°02'0 0.0
2017-Sep-18 20:58N 68°57' E 033°02'0 0.0
2017-Sep-18 20:28N 68°57' E 033°02'0 0.0
2017-Sep-18 19:58N 68°57' E 033°02'0 0.0
2017-Sep-18 19:28N 68°57' E 033°02'0 0.0
2017-Sep-18 18:58N 68°57' E 033°02'0 0.0
2017-Sep-18 18:28N 68°57' E 033°02'0 0.0
2017-Sep-18 17:58N 68°57' E 033°02'0 0.0
2017-Sep-18 17:28N 68°57' E 033°02'0 0.0
2017-Sep-18 16:58N 68°57' E 033°02'0 0.0
2017-Sep-18 16:28N 68°57' E 033°02'0 0.0
2017-Sep-18 15:58N 68°57' E 033°02'0 0.0
2017-Sep-18 15:28N 68°57' E 033°02'0 0.0
2017-Sep-18 14:58N 68°57' E 033°02'0 0.0
2017-Sep-18 14:28N 68°57' E 033°02'0 0.0
2017-Sep-18 13:58N 68°57' E 033°02'0 0.0
2017-Sep-18 13:28N 68°57' E 033°02'0 0.0
2017-Sep-18 12:58N 68°57' E 033°02'0 0.0
2017-Sep-18 12:28N 68°57' E 033°02'0 0.0
2017-Sep-18 11:58N 68°57' E 033°02'0 0.0
2017-Sep-18 11:28N 68°57' E 033°02'0 0.0
2017-Sep-18 10:58N 68°57' E 033°02'0 0.0
2017-Sep-18 10:28N 68°57' E 033°02'0 0.0
2017-Sep-18 09:58N 68°57' E 033°02'0 0.0
2017-Sep-18 09:28N 68°57' E 033°02'0 0.0
2017-Sep-18 08:58N 68°57' E 033°02'0 0.0
2017-Sep-18 08:28N 68°57' E 033°02'0 0.0
2017-Sep-18 07:58N 68°57' E 033°02'0 0.0
2017-Sep-18 07:28N 68°57' E 033°02'0 0.0
2017-Sep-18 06:58N 68°57' E 033°02'0 0.0
2017-Sep-18 06:28N 68°57' E 033°02'0 0.0
2017-Sep-18 05:58N 68°57' E 033°02'0 0.0
2017-Sep-18 05:28N 68°57' E 033°02'0 0.0
2017-Sep-18 04:58N 68°57' E 033°02'0 0.0
2017-Sep-18 04:28N 68°57' E 033°02'0 0.0
2017-Sep-18 03:58N 68°57' E 033°02'0 0.0
2017-Sep-18 03:28N 68°57' E 033°02'0 0.0
2017-Sep-18 02:58N 68°57' E 033°02'0 0.0
2017-Sep-18 02:28N 68°57' E 033°02'0 0.0
2017-Sep-18 01:58N 68°57' E 033°02'0 0.0
2017-Sep-18 01:28N 68°57' E 033°02'0 0.0
2017-Sep-18 00:58N 68°57' E 033°02'0 0.0
2017-Sep-18 00:28N 68°57' E 033°02'0 0.0
2017-Sep-17 23:58N 68°57' E 033°02'0 0.0
2017-Sep-17 23:28N 68°57' E 033°02'0 0.0
2017-Sep-17 22:55N 68°57' E 033°02'0 0.0
2017-Sep-17 22:28N 68°57' E 033°02'0 0.0
2017-Sep-17 21:58N 68°57' E 033°02'0 0.0
2017-Sep-17 21:28N 68°57' E 033°02'0 0.0
2017-Sep-17 20:58N 68°57' E 033°02'0 0.0
2017-Sep-17 20:28N 68°57' E 033°02'0 0.0
2017-Sep-17 19:58N 68°57' E 033°02'0 0.0
2017-Sep-17 19:28N 68°57' E 033°02'0 0.0
2017-Sep-17 18:58N 68°57' E 033°02'0 0.0
2017-Sep-17 18:28N 68°57' E 033°02'0 0.0
2017-Sep-17 17:58N 68°57' E 033°02'0 0.0
2017-Sep-17 17:28N 68°57' E 033°02'0 0.0
2017-Sep-17 16:58N 68°57' E 033°02'0 0.0
2017-Sep-17 16:28N 68°57' E 033°02'0 0.0
2017-Sep-17 15:58N 68°57' E 033°02'0 0.0
2017-Sep-17 15:28N 68°57' E 033°02'0 0.0
2017-Sep-17 14:58N 68°57' E 033°02'0 0.0
2017-Sep-17 14:28N 68°57' E 033°02'0 0.0
2017-Sep-17 13:58N 68°57' E 033°02'0 0.0
2017-Sep-17 13:28N 68°57' E 033°02'0 0.0
2017-Sep-17 12:58N 68°57' E 033°02'0 0.0
2017-Sep-17 12:28N 68°57' E 033°02'0 0.0
2017-Sep-17 11:58N 68°57' E 033°02'0 0.0
2017-Sep-17 11:28N 68°57' E 033°02'0 0.0
2017-Sep-17 10:58N 68°57' E 033°02'0 0.0
2017-Sep-17 10:28N 68°57' E 033°02'0 0.0
2017-Sep-17 09:58N 68°57' E 033°02'0 0.0
2017-Sep-17 09:28N 68°57' E 033°02'0 0.0
2017-Sep-17 08:58N 68°57' E 033°02'0 0.0
2017-Sep-17 08:28N 68°57' E 033°02'0 0.0
2017-Sep-17 07:58N 68°57' E 033°02'0 0.0
2017-Sep-17 07:28N 68°57' E 033°02'0 0.0
2017-Sep-17 06:58N 68°57' E 033°02'0 0.0
2017-Sep-17 06:28N 68°57' E 033°02'0 0.0
2017-Sep-17 05:58N 68°57' E 033°02'0 0.0
2017-Sep-17 05:28N 68°57' E 033°02'0 0.0
2017-Sep-17 04:58N 68°57' E 033°02'0 0.0
2017-Sep-17 04:28N 68°57' E 033°02'0 0.3
2017-Sep-17 04:01N 68°57' E 033°01'0 0.7
2017-Sep-17 03:28N 68°57' E 033°02'0 0.0
2017-Sep-17 02:58N 68°57' E 033°02'0 0.0
2017-Sep-17 02:28N 68°57' E 033°02'0 0.0
2017-Sep-17 01:58N 68°57' E 033°02'0 0.0
2017-Sep-17 01:28N 68°57' E 033°02'0 0.0
2017-Sep-17 00:58N 68°57' E 033°02'0 0.0
2017-Sep-17 00:28N 68°57' E 033°02'  

Dump ship's entire track history